Time;durP1;ratioP1;P1;durP2;ratioP2;P2;SDS_P1;SDS_P2;PMS_P1;PMS_P2;Temp;Humidity;BMP_temperature;BMP_pressure;BME280_temperature;BME280_humidity;BME280_pressure;Samples;Min_cycle;Max_cycle;Signal;HPM_P1;HPM_P2
2023/01/22 00:01:01;;;;;;;39.40;23.92;;;1.20;94.40;;;;;;5048980;28;20550;-74
2023/01/22 00:03:27;;;;;;;39.72;23.08;;;1.20;94.40;;;;;;5046907;28;20026;-75
2023/01/22 00:05:53;;;;;;;40.88;23.17;;;1.20;94.30;;;;;;5038804;28;20096;-75
2023/01/22 00:08:19;;;;;;;39.78;24.70;;;1.20;94.30;;;;;;5067777;28;20097;-74
2023/01/22 00:10:49;;;;;;;40.58;22.92;;;1.20;94.30;;;;;;5038017;28;20021;-74
2023/01/22 00:13:15;;;;;;;42.90;24.85;;;1.10;94.30;;;;;;5034071;28;20100;-75
2023/01/22 00:15:41;;;;;;;42.33;25.08;;;1.10;94.30;;;;;;5030500;28;20108;-74
2023/01/22 00:18:07;;;;;;;39.17;23.98;;;1.10;94.30;;;;;;5039891;28;20040;-74
2023/01/22 00:20:33;;;;;;;43.70;24.80;;;1.10;94.40;;;;;;5033162;28;20087;-73
2023/01/22 00:22:58;;;;;;;38.40;24.02;;;1.00;94.30;;;;;;5047013;28;20037;-75
2023/01/22 00:25:24;;;;;;;41.50;23.40;;;1.00;94.40;;;;;;5033894;28;20569;-74
2023/01/22 00:27:49;;;;;;;43.00;25.10;;;1.00;94.40;;;;;;5021439;28;20543;-74
2023/01/22 00:30:15;;;;;;;40.75;23.83;;;1.00;94.40;;;;;;5040303;28;20542;-74
2023/01/22 00:32:41;;;;;;;40.03;23.52;;;1.00;94.40;;;;;;5038975;28;20026;-74
2023/01/22 00:35:07;;;;;;;41.17;24.00;;;1.00;94.50;;;;;;5035517;28;20095;-74
2023/01/22 00:37:32;;;;;;;43.35;25.55;;;0.90;94.50;;;;;;5048373;28;20039;-74
2023/01/22 00:39:58;;;;;;;42.83;23.85;;;0.90;94.40;;;;;;5026997;28;20021;-74
2023/01/22 00:42:24;;;;;;;43.30;24.10;;;0.90;94.40;;;;;;5039853;28;20545;-74
2023/01/22 00:44:50;;;;;;;40.53;24.83;;;0.90;94.30;;;;;;5064703;28;20033;-74
2023/01/22 00:47:16;;;;;;;43.55;24.42;;;0.90;94.30;;;;;;5035638;28;20070;-74
2023/01/22 00:49:41;;;;;;;43.42;23.75;;;0.90;94.30;;;;;;5053390;28;20105;-74
2023/01/22 00:52:07;;;;;;;41.85;23.67;;;0.90;94.20;;;;;;5049356;28;20031;-74
2023/01/22 00:54:33;;;;;;;39.95;23.45;;;0.90;94.10;;;;;;5053887;28;20050;-74
2023/01/22 00:56:58;;;;;;;43.08;24.27;;;0.90;94.10;;;;;;5011575;28;20043;-74
2023/01/22 00:59:24;;;;;;;43.78;24.15;;;0.90;94.00;;;;;;5050937;28;20053;-74
2023/01/22 01:01:50;;;;;;;46.78;24.73;;;1.00;94.00;;;;;;5027693;28;20048;-73
2023/01/22 01:04:15;;;;;;;44.25;24.45;;;0.90;93.90;;;;;;5041186;28;20037;-74
2023/01/22 01:06:41;;;;;;;41.78;25.52;;;1.00;93.90;;;;;;5028511;28;20103;-74
2023/01/22 01:09:07;;;;;;;44.13;24.98;;;0.90;93.80;;;;;;5054167;28;20028;-75
2023/01/22 01:11:32;;;;;;;38.03;23.50;;;0.90;93.80;;;;;;5045674;28;20036;-74
2023/01/22 01:13:58;;;;;;;37.33;23.30;;;0.90;93.80;;;;;;5050471;28;20032;-73
2023/01/22 01:16:28;;;;;;;40.53;23.98;;;1.00;93.80;;;;;;5034368;28;20087;-74
2023/01/22 01:18:57;;;;;;;44.47;24.55;;;1.00;93.80;;;;;;5045197;28;20457;-74
2023/01/22 01:21:23;;;;;;;42.13;23.30;;;0.90;93.70;;;;;;5038546;28;20083;-74
2023/01/22 01:23:49;;;;;;;42.30;24.77;;;0.90;93.60;;;;;;5043144;28;20017;-75
2023/01/22 01:26:17;;;;;;;35.00;21.65;;;0.90;93.60;;;;;;5060488;28;20048;-74
2023/01/22 01:28:44;;;;;;;40.53;23.42;;;0.90;93.60;;;;;;5046849;28;20083;-75
2023/01/22 01:31:12;;;;;;;37.10;21.80;;;0.80;93.50;;;;;;5031343;28;20133;-74
2023/01/22 01:33:38;;;;;;;37.42;22.85;;;0.80;93.50;;;;;;5016108;28;20025;-74
2023/01/22 01:36:06;;;;;;;41.78;22.90;;;0.70;93.50;;;;;;5046541;28;20106;-73
2023/01/22 01:38:32;;;;;;;40.45;22.55;;;0.70;93.60;;;;;;5031549;28;20025;-74
2023/01/22 01:40:58;;;;;;;38.15;22.00;;;0.70;93.60;;;;;;5050335;28;20026;-74
2023/01/22 01:43:26;;;;;;;35.42;22.30;;;0.70;93.60;;;;;;5037765;28;20431;-73
2023/01/22 01:45:53;;;;;;;35.55;20.77;;;0.60;93.60;;;;;;5038370;28;20048;-75
2023/01/22 01:48:43;;;;;;;36.22;21.70;;;0.60;93.60;;;;;;5009901;28;20144;-75
2023/01/22 01:51:14;;;;;;;39.05;21.45;;;0.60;93.80;;;;;;5058160;28;20026;-75
2023/01/22 01:53:41;;;;;;;36.17;21.05;;;0.60;94.00;;;;;;5037119;28;20403;-75
2023/01/22 01:56:20;;;;;;;34.80;20.08;;;0.60;94.20;;;;;;5047424;28;20132;-75
2023/01/22 01:58:49;;;;;;;32.83;19.63;;;0.70;94.70;;;;;;5057403;28;20147;-75
2023/01/22 02:01:16;;;;;;;34.10;19.13;;;0.70;95.20;;;;;;5050178;28;20047;-74
2023/01/22 02:03:44;;;;;;;37.08;19.13;;;0.80;95.50;;;;;;5015561;28;20152;-74
2023/01/22 02:06:12;;;;;;;39.30;19.65;;;0.90;95.70;;;;;;5050752;28;20112;-73
2023/01/22 02:08:41;;;;;;;31.83;19.17;;;1.00;95.70;;;;;;5042416;28;20026;-73
2023/01/22 02:11:07;;;;;;;33.10;19.13;;;1.10;95.80;;;;;;5044218;28;20021;-74
2023/01/22 02:13:35;;;;;;;33.00;17.80;;;1.10;95.70;;;;;;5049309;28;20032;-74
2023/01/22 02:16:01;;;;;;;33.80;19.55;;;1.10;95.70;;;;;;5025385;28;20032;-74
2023/01/22 02:18:26;;;;;;;34.33;19.08;;;1.20;95.90;;;;;;5035151;28;20021;-74
2023/01/22 02:20:55;;;;;;;28.05;17.25;;;1.20;96.00;;;;;;5043606;28;20021;-75
2023/01/22 02:23:21;;;;;;;28.73;16.38;;;1.30;96.40;;;;;;5040791;28;20048;-73
2023/01/22 02:25:46;;;;;;;25.10;15.55;;;1.30;96.30;;;;;;5040094;28;20494;-74
2023/01/22 02:28:12;;;;;;;29.45;17.17;;;1.40;96.30;;;;;;5019441;28;20033;-74
2023/01/22 02:30:38;;;;;;;31.73;19.88;;;1.40;96.50;;;;;;5035580;28;20498;-73
2023/01/22 02:33:04;;;;;;;32.38;18.73;;;1.50;96.50;;;;;;5023297;28;20018;-74
2023/01/22 02:35:30;;;;;;;29.67;17.83;;;1.50;96.40;;;;;;5032437;28;20044;-74
2023/01/22 02:37:55;;;;;;;26.48;16.15;;;1.50;96.30;;;;;;5051067;28;20020;-74
2023/01/22 02:40:21;;;;;;;26.42;13.63;;;1.60;96.40;;;;;;5029534;28;20033;-74
2023/01/22 02:42:47;;;;;;;27.98;15.23;;;1.60;96.50;;;;;;5044037;28;20036;-75
2023/01/22 02:45:12;;;;;;;21.70;13.30;;;1.60;96.80;;;;;;5032383;28;20025;-74
2023/01/22 02:47:38;;;;;;;25.77;16.23;;;1.60;96.70;;;;;;5050421;28;20076;-75
2023/01/22 02:50:04;;;;;;;28.15;17.05;;;1.60;96.90;;;;;;5038929;28;20052;-74
2023/01/22 02:52:30;;;;;;;31.80;17.20;;;1.60;96.70;;;;;;5051960;28;20044;-75
2023/01/22 02:54:56;;;;;;;24.77;15.55;;;1.60;96.50;;;;;;5043880;28;20026;-74
2023/01/22 02:57:21;;;;;;;27.10;16.00;;;1.60;96.30;;;;;;5027933;28;20051;-74
2023/01/22 02:59:48;;;;;;;30.27;17.13;;;1.60;96.20;;;;;;5014018;28;20498;-74
2023/01/22 03:02:13;;;;;;;28.15;17.20;;;1.60;96.20;;;;;;5035638;28;20029;-74
2023/01/22 03:04:39;;;;;;;27.58;16.48;;;1.60;96.10;;;;;;5018892;28;20028;-74
2023/01/22 03:07:05;;;;;;;27.67;16.85;;;1.60;96.10;;;;;;5043606;28;20029;-74
2023/01/22 03:09:30;;;;;;;29.65;17.00;;;1.60;96.00;;;;;;5031179;28;20067;-75
2023/01/22 03:11:57;;;;;;;32.33;18.75;;;1.60;96.10;;;;;;5047060;28;20306;-74
2023/01/22 03:22:37;;;;;;;28.95;16.40;;;1.80;96.50;;;;;;5044978;28;20035;-73
2023/01/22 03:25:03;;;;;;;29.48;17.08;;;1.80;96.10;;;;;;5047648;28;20081;-74
2023/01/22 03:27:30;;;;;;;23.00;12.98;;;1.80;95.90;;;;;;5035224;28;20021;-75
2023/01/22 03:29:57;;;;;;;24.35;14.00;;;1.80;96.20;;;;;;5039629;28;20060;-75
2023/01/22 03:32:23;;;;;;;26.65;17.02;;;1.80;96.90;;;;;;5032999;28;20033;-74
2023/01/22 03:34:49;;;;;;;27.48;16.63;;;1.80;96.70;;;;;;5053048;28;20020;-74
2023/01/22 03:37:15;;;;;;;30.23;17.55;;;1.70;96.50;;;;;;5039555;28;20028;-74
2023/01/22 03:39:41;;;;;;;29.00;17.33;;;1.70;96.40;;;;;;5033302;28;20013;-74
2023/01/22 03:42:07;;;;;;;27.05;17.60;;;1.80;96.80;;;;;;5046794;28;20048;-74
2023/01/22 03:44:32;;;;;;;19.40;11.45;;;1.70;96.60;;;;;;5048588;28;20028;-74
2023/01/22 03:46:58;;;;;;;27.20;17.42;;;1.70;97.00;;;;;;5038719;28;20359;-73
2023/01/22 03:49:24;;;;;;;30.20;16.92;;;1.80;97.40;;;;;;5054264;28;20029;-73
2023/01/22 03:51:49;;;;;;;29.67;17.83;;;1.80;97.60;;;;;;5046715;28;20021;-73
2023/01/22 03:54:16;;;;;;;22.67;12.95;;;1.80;97.40;;;;;;5044865;28;20483;-75
2023/01/22 03:56:42;;;;;;;24.17;15.82;;;1.80;96.90;;;;;;5043369;28;20448;-73
2023/01/22 03:59:09;;;;;;;32.60;17.17;;;1.80;96.80;;;;;;5041378;28;20026;-74
2023/01/22 04:01:35;;;;;;;21.95;14.40;;;1.90;96.50;;;;;;5037694;28;20106;-75
2023/01/22 04:04:02;;;;;;;25.70;16.75;;;1.90;96.30;;;;;;5042143;28;20809;-74
2023/01/22 04:06:29;;;;;;;27.30;17.35;;;2.00;96.10;;;;;;5048257;28;20036;-75
2023/01/22 04:08:55;;;;;;;30.05;17.52;;;2.00;95.90;;;;;;5032229;28;20413;-74
2023/01/22 04:11:22;;;;;;;28.70;17.50;;;2.10;96.40;;;;;;5068319;28;20063;-74
2023/01/22 04:13:48;;;;;;;28.15;17.65;;;2.10;96.00;;;;;;5053789;28;20033;-74
2023/01/22 04:16:14;;;;;;;28.67;18.10;;;2.10;95.80;;;;;;5049106;28;20030;-74
2023/01/22 04:18:42;;;;;;;29.10;17.92;;;2.10;95.90;;;;;;5038834;28;20578;-74
2023/01/22 04:21:08;;;;;;;31.73;19.42;;;2.20;96.20;;;;;;5028912;28;20025;-74
2023/01/22 04:23:34;;;;;;;31.75;18.15;;;2.20;95.80;;;;;;5037697;28;20068;-73
2023/01/22 04:26:01;;;;;;;26.27;16.73;;;2.20;96.20;;;;;;5046472;28;20034;-74
2023/01/22 04:28:26;;;;;;;29.13;18.95;;;2.20;96.00;;;;;;5038625;28;20044;-74
2023/01/22 04:30:53;;;;;;;26.02;16.48;;;2.20;95.80;;;;;;5039559;28;20568;-73
2023/01/22 04:33:19;;;;;;;25.48;16.05;;;2.20;95.60;;;;;;5047802;28;20049;-73
2023/01/22 04:35:49;;;;;;;26.48;16.13;;;2.20;95.40;;;;;;5042342;28;20075;-73
2023/01/22 04:38:15;;;;;;;26.13;15.82;;;2.20;95.50;;;;;;5043600;28;20491;-74
2023/01/22 04:40:41;;;;;;;30.08;17.20;;;2.20;95.70;;;;;;5053821;28;20040;-75
2023/01/22 04:43:08;;;;;;;25.50;15.93;;;2.20;95.50;;;;;;5044087;28;20043;-75
2023/01/22 04:45:34;;;;;;;30.30;16.60;;;2.20;95.60;;;;;;5028255;28;20020;-75
2023/01/22 04:48:00;;;;;;;26.08;17.10;;;2.20;95.60;;;;;;5038976;28;20048;-73
2023/01/22 04:50:29;;;;;;;26.80;16.65;;;2.20;95.50;;;;;;5038130;28;20018;-73
2023/01/22 04:52:55;;;;;;;27.08;16.55;;;2.20;95.70;;;;;;5046638;28;20060;-74
2023/01/22 04:55:22;;;;;;;25.23;16.52;;;2.20;96.00;;;;;;5042250;28;20399;-74
2023/01/22 04:57:48;;;;;;;25.58;16.80;;;2.10;95.60;;;;;;5050442;28;20021;-74
2023/01/22 05:00:14;;;;;;;22.98;14.52;;;2.20;95.70;;;;;;5051817;28;20058;-74
2023/01/22 05:02:40;;;;;;;25.35;14.80;;;2.20;97.00;;;;;;5050385;28;20565;-72
2023/01/22 05:05:07;;;;;;;22.90;15.30;;;2.20;97.20;;;;;;5040512;28;20049;-75
2023/01/22 05:07:33;;;;;;;25.60;16.27;;;2.20;96.70;;;;;;5063879;28;20032;-74
2023/01/22 05:09:58;;;;;;;27.98;17.90;;;2.20;96.70;;;;;;5061934;28;20024;-74
2023/01/22 05:12:24;;;;;;;14.73;8.35;;;2.10;96.70;;;;;;5061570;28;20025;-74
2023/01/22 05:14:50;;;;;;;27.02;17.35;;;2.20;97.40;;;;;;5047176;28;20510;-74
2023/01/22 05:17:16;;;;;;;25.55;14.88;;;2.20;98.10;;;;;;5053972;28;20028;-73
2023/01/22 05:19:42;;;;;;;20.55;11.82;;;2.20;97.70;;;;;;5044381;28;20485;-74
2023/01/22 05:22:08;;;;;;;26.33;16.58;;;2.10;97.40;;;;;;5050730;28;20112;-75
2023/01/22 05:24:33;;;;;;;28.75;17.88;;;2.10;97.10;;;;;;5054720;28;20021;-75
2023/01/22 05:26:59;;;;;;;23.65;15.98;;;2.20;96.90;;;;;;5043233;28;20039;-74
2023/01/22 05:29:26;;;;;;;20.17;13.18;;;2.20;96.60;;;;;;5051379;28;20021;-74
2023/01/22 05:31:56;;;;;;;20.48;13.65;;;2.20;96.90;;;;;;5038200;28;20021;-74
2023/01/22 05:34:22;;;;;;;27.58;17.00;;;2.20;96.70;;;;;;5068462;28;20372;-75
2023/01/22 05:36:47;;;;;;;24.45;16.25;;;2.20;96.70;;;;;;5035178;28;20051;-74
2023/01/22 05:39:14;;;;;;;24.13;16.20;;;2.30;96.70;;;;;;5047756;28;20049;-74
2023/01/22 05:41:40;;;;;;;24.15;13.55;;;2.20;96.50;;;;;;5031699;28;20048;-74
2023/01/22 05:44:05;;;;;;;25.15;16.45;;;2.20;96.40;;;;;;5060795;28;20070;-75
2023/01/22 05:46:31;;;;;;;21.17;12.95;;;2.30;97.10;;;;;;5049657;28;20021;-75
2023/01/22 05:48:57;;;;;;;15.90;9.25;;;2.30;97.00;;;;;;5052006;28;20016;-75
2023/01/22 05:51:24;;;;;;;26.40;16.90;;;2.40;97.90;;;;;;5050714;28;20406;-75
2023/01/22 05:53:51;;;;;;;22.23;15.52;;;2.40;98.70;;;;;;5046293;28;20091;-74
2023/01/22 05:56:17;;;;;;;23.33;15.27;;;2.40;98.40;;;;;;5043420;28;20030;-74
2023/01/22 05:58:42;;;;;;;20.25;13.40;;;2.40;97.70;;;;;;5050772;28;20489;-75
2023/01/22 06:01:09;;;;;;;19.98;11.63;;;2.40;98.40;;;;;;5035786;28;20043;-74
2023/01/22 06:03:34;;;;;;;26.73;16.50;;;2.50;98.80;;;;;;5043939;28;20542;-74
2023/01/22 06:06:03;;;;;;;14.43;8.30;;;2.60;98.80;;;;;;5042743;28;20029;-75
2023/01/22 06:08:28;;;;;;;21.38;12.45;;;2.50;98.40;;;;;;5054075;28;20101;-74
2023/01/22 06:11:05;;;;;;;25.35;16.45;;;2.50;98.30;;;;;;5033489;28;20096;-74
2023/01/22 06:13:31;;;;;;;22.55;13.38;;;2.60;98.40;;;;;;5048904;28;20068;-74
2023/01/22 06:15:59;;;;;;;21.10;13.57;;;2.50;97.80;;;;;;5038308;28;20115;-73
2023/01/22 06:18:25;;;;;;;19.83;12.50;;;2.50;98.20;;;;;;5038990;28;20075;-73
2023/01/22 06:20:51;;;;;;;23.27;12.95;;;2.40;98.30;;;;;;5044341;28;20032;-74
2023/01/22 06:23:18;;;;;;;26.92;16.70;;;2.50;98.40;;;;;;5035104;28;20151;-74
2023/01/22 06:25:51;;;;;;;26.98;13.07;;;2.50;97.80;;;;;;5051715;28;20029;-73
2023/01/22 06:28:18;;;;;;;18.23;11.35;;;2.50;97.40;;;;;;5040704;28;20032;-73
2023/01/22 06:30:44;;;;;;;25.58;15.70;;;2.40;97.10;;;;;;5058381;28;20098;-74
2023/01/22 06:33:10;;;;;;;20.38;13.10;;;2.40;96.60;;;;;;5038866;28;20060;-74
2023/01/22 06:35:35;;;;;;;18.17;13.07;;;2.50;96.80;;;;;;5057195;28;20071;-73
2023/01/22 06:38:02;;;;;;;20.50;14.35;;;2.40;96.20;;;;;;5069872;28;20017;-74
2023/01/22 06:40:27;;;;;;;20.58;11.93;;;2.50;96.20;;;;;;5051179;28;20044;-74
2023/01/22 06:42:53;;;;;;;21.27;13.50;;;2.50;96.40;;;;;;5057755;28;20495;-74
2023/01/22 06:45:18;;;;;;;15.50;9.55;;;2.50;96.50;;;;;;5042145;28;20025;-76
2023/01/22 06:47:45;;;;;;;18.00;12.18;;;2.50;97.90;;;;;;5052792;28;20075;-76
2023/01/22 06:50:12;;;;;;;19.10;13.48;;;2.40;98.00;;;;;;5049246;28;20111;-75
2023/01/22 06:52:38;;;;;;;15.50;10.13;;;2.40;97.50;;;;;;5049554;28;20047;-75
2023/01/22 06:55:04;;;;;;;20.52;12.38;;;2.40;97.50;;;;;;5041867;28;20029;-75
2023/01/22 06:57:29;;;;;;;23.63;13.40;;;2.40;96.80;;;;;;5062021;28;20035;-75
2023/01/22 06:59:55;;;;;;;18.73;11.90;;;2.40;96.20;;;;;;5030820;28;20029;-76
2023/01/22 07:02:21;;;;;;;19.85;10.93;;;2.50;96.10;;;;;;5053356;28;20035;-74
2023/01/22 07:04:47;;;;;;;20.85;13.07;;;2.50;96.00;;;;;;5051864;28;20032;-74
2023/01/22 07:07:14;;;;;;;17.13;10.35;;;2.50;96.70;;;;;;5059647;28;20032;-75
2023/01/22 07:09:39;;;;;;;16.30;11.38;;;2.50;96.90;;;;;;5046926;28;20024;-76
2023/01/22 07:12:05;;;;;;;10.55;6.93;;;2.50;96.60;;;;;;5051319;28;20071;-75
2023/01/22 07:14:31;;;;;;;15.75;8.43;;;2.50;97.70;;;;;;5034921;28;20137;-75
2023/01/22 07:16:58;;;;;;;18.13;12.05;;;2.50;98.30;;;;;;5023851;28;20108;-74
2023/01/22 07:19:23;;;;;;;18.88;11.15;;;2.50;98.00;;;;;;5040188;28;20518;-74
2023/01/22 07:21:49;;;;;;;17.13;9.82;;;2.50;97.30;;;;;;5048641;28;20087;-74
2023/01/22 07:24:15;;;;;;;19.15;10.75;;;2.50;96.60;;;;;;5038564;28;20083;-74
2023/01/22 07:26:42;;;;;;;18.50;10.38;;;2.50;96.80;;;;;;5037131;28;20032;-74
2023/01/22 07:29:09;;;;;;;17.08;10.45;;;2.50;96.90;;;;;;5040129;28;20025;-75
2023/01/22 07:31:35;;;;;;;17.40;11.07;;;2.50;96.90;;;;;;5049495;28;20048;-76
2023/01/22 07:34:02;;;;;;;17.38;10.35;;;2.40;97.20;;;;;;5040342;28;20060;-75
2023/01/22 07:36:27;;;;;;;13.77;9.00;;;2.40;96.80;;;;;;5041887;28;20543;-75
2023/01/22 07:38:53;;;;;;;19.73;9.73;;;2.40;97.10;;;;;;5019936;28;20108;-75
2023/01/22 07:41:19;;;;;;;9.43;6.10;;;2.30;96.70;;;;;;5024878;28;20051;-75
2023/01/22 07:43:45;;;;;;;20.23;12.75;;;2.40;97.50;;;;;;5042186;28;20093;-76
2023/01/22 07:46:10;;;;;;;16.85;11.52;;;2.40;97.30;;;;;;5041353;28;20433;-75
2023/01/22 07:48:37;;;;;;;14.20;8.70;;;2.50;97.10;;;;;;5045275;28;20029;-76
2023/01/22 07:51:04;;;;;;;16.67;10.18;;;2.40;96.60;;;;;;5038933;28;20822;-76
2023/01/22 07:53:31;;;;;;;16.40;10.77;;;2.50;97.10;;;;;;5055466;28;20021;-75
2023/01/22 07:55:57;;;;;;;16.63;11.00;;;2.50;96.50;;;;;;5040605;28;20025;-75
2023/01/22 07:58:23;;;;;;;17.73;9.63;;;2.50;96.00;;;;;;5021766;28;20052;-76
2023/01/22 08:00:49;;;;;;;19.65;9.80;;;2.50;95.90;;;;;;5016582;28;20119;-74
2023/01/22 08:03:15;;;;;;;12.93;7.43;;;2.50;96.00;;;;;;5023384;28;20044;-75
2023/01/22 08:05:42;;;;;;;17.98;11.48;;;2.60;96.40;;;;;;5044752;28;20033;-73
2023/01/22 08:08:19;;;;;;;14.45;7.05;;;2.60;96.70;;;;;;5045917;28;20384;-75
2023/01/22 08:10:45;;;;;;;13.70;8.98;;;2.60;97.30;;;;;;5038028;28;20112;-75
2023/01/22 08:13:10;;;;;;;16.15;10.15;;;2.70;97.80;;;;;;5050532;28;20017;-75
2023/01/22 08:15:36;;;;;;;14.82;11.32;;;2.70;97.70;;;;;;5017549;28;20105;-75
2023/01/22 08:18:02;;;;;;;12.27;8.02;;;2.80;97.40;;;;;;5042970;28;20025;-76
2023/01/22 08:20:27;;;;;;;13.82;8.57;;;2.80;97.60;;;;;;5042608;28;20124;-76
2023/01/22 08:23:00;;;;;;;14.00;9.88;;;2.90;98.00;;;;;;5037882;28;20041;-76
2023/01/22 08:25:27;;;;;;;14.73;9.90;;;2.80;97.70;;;;;;5037723;28;20113;-74
2023/01/22 08:27:53;;;;;;;11.38;7.63;;;2.90;98.30;;;;;;5038635;28;20028;-75
2023/01/22 08:30:18;;;;;;;15.75;10.10;;;2.90;98.00;;;;;;5041744;28;20049;-75
2023/01/22 08:32:44;;;;;;;13.55;9.20;;;3.00;98.30;;;;;;5040133;28;20545;-75
2023/01/22 08:35:11;;;;;;;14.82;9.90;;;3.00;98.10;;;;;;5041366;28;20562;-75
2023/01/22 08:37:37;;;;;;;13.43;8.60;;;3.00;98.10;;;;;;5035315;28;20033;-75
2023/01/22 08:40:04;;;;;;;16.58;11.75;;;3.00;97.40;;;;;;5040858;28;20107;-74
2023/01/22 08:42:29;;;;;;;13.35;10.77;;;3.10;98.40;;;;;;5038561;28;20564;-75
2023/01/22 08:44:55;;;;;;;14.85;10.40;;;3.10;97.60;;;;;;5034239;28;20017;-75
2023/01/22 08:47:22;;;;;;;38.35;31.95;;;3.20;98.40;;;;;;5035507;28;20036;-75
2023/01/22 08:49:47;;;;;;;13.30;10.13;;;3.20;97.70;;;;;;5040956;28;20025;-74
2023/01/22 08:52:13;;;;;;;14.27;9.77;;;3.20;96.90;;;;;;5029766;28;20025;-75
2023/01/22 08:54:39;;;;;;;11.90;8.40;;;3.20;96.80;;;;;;5044123;28;20021;-75
2023/01/22 08:57:07;;;;;;;12.48;7.53;;;3.20;97.10;;;;;;5037406;28;20061;-75
2023/01/22 08:59:33;;;;;;;14.15;9.85;;;3.20;97.60;;;;;;5023935;28;20045;-75
2023/01/22 09:01:59;;;;;;;16.00;12.63;;;3.20;97.90;;;;;;5042423;28;20068;-76
2023/01/22 09:04:24;;;;;;;22.95;14.23;;;3.20;96.80;;;;;;5039491;28;20037;-76
2023/01/22 09:06:50;;;;;;;17.42;11.05;;;3.20;96.60;;;;;;5037484;28;20083;-75
2023/01/22 09:09:16;;;;;;;19.60;7.60;;;3.30;97.60;;;;;;5044740;28;20651;-77
2023/01/22 09:11:42;;;;;;;16.33;10.18;;;3.30;98.40;;;;;;5041697;28;20032;-76
2023/01/22 09:14:08;;;;;;;10.43;7.72;;;3.30;98.00;;;;;;5036340;28;20051;-76
2023/01/22 09:16:35;;;;;;;10.85;6.65;;;3.40;98.30;;;;;;5049767;28;20445;-76
2023/01/22 09:19:00;;;;;;;10.95;6.30;;;3.40;99.50;;;;;;5038574;28;20031;-75
2023/01/22 09:21:26;;;;;;;11.02;8.25;;;3.40;99.70;;;;;;5037016;28;20030;-76
2023/01/22 09:23:52;;;;;;;12.07;7.57;;;3.40;98.90;;;;;;5030915;28;20025;-76
2023/01/22 09:26:25;;;;;;;10.25;6.40;;;3.30;97.90;;;;;;5081854;28;20406;-77
2023/01/22 09:28:51;;;;;;;9.77;6.22;;;3.30;98.60;;;;;;5077087;28;20043;-76
2023/01/22 09:31:17;;;;;;;12.30;8.65;;;3.40;99.00;;;;;;5064753;28;20033;-76
2023/01/22 09:33:43;;;;;;;12.93;8.13;;;3.50;99.70;;;;;;5064521;28;20028;-76
2023/01/22 09:36:15;;;;;;;12.25;8.07;;;3.50;99.20;;;;;;5062332;28;20023;-76
2023/01/22 09:38:41;;;;;;;13.43;9.55;;;3.50;98.70;;;;;;5051237;28;20104;-76
2023/01/22 09:41:27;;;;;;;14.55;8.77;;;3.60;98.50;;;;;;5064556;28;20077;-76
2023/01/22 09:44:01;;;;;;;13.88;7.78;;;3.60;98.10;;;;;;5052861;28;20543;-77
2023/01/22 09:46:27;;;;;;;12.73;8.48;;;3.50;98.10;;;;;;5062518;28;20062;-77
2023/01/22 09:48:59;;;;;;;13.85;8.68;;;3.50;97.50;;;;;;5063448;28;20025;-76
2023/01/22 09:51:25;;;;;;;10.90;7.20;;;3.60;97.10;;;;;;5062348;28;20067;-75
2023/01/22 09:53:59;;;;;;;13.75;6.95;;;3.70;98.70;;;;;;5063060;28;20021;-77
2023/01/22 09:56:39;;;;;;;13.55;6.63;;;3.70;98.60;;;;;;5062809;28;20036;-76
2023/01/22 09:59:06;;;;;;;14.50;9.13;;;3.70;98.90;;;;;;5063897;28;20096;-76
2023/01/22 10:01:32;;;;;;;16.88;9.02;;;3.70;98.10;;;;;;5063024;28;20185;-77
2023/01/22 10:04:19;;;;;;;10.77;7.10;;;3.70;97.10;;;;;;5062829;28;20390;-75
2023/01/22 10:06:46;;;;;;;10.10;5.72;;;3.70;96.60;;;;;;5064025;28;20051;-77
2023/01/22 10:09:16;;;;;;;11.85;8.30;;;3.70;97.00;;;;;;5064316;28;20753;-77
2023/01/22 10:11:48;;;;;;;16.23;6.32;;;3.70;96.60;;;;;;5063559;28;20086;-76
2023/01/22 10:14:16;;;;;;;12.77;6.50;;;3.70;97.40;;;;;;5064083;28;20028;-77
2023/01/22 10:16:44;;;;;;;13.45;8.70;;;3.80;99.10;;;;;;5056292;28;20144;-76
2023/01/22 10:19:34;;;;;;;12.98;9.40;;;3.70;98.80;;;;;;5059257;28;20047;-74
2023/01/22 10:22:05;;;;;;;13.82;7.55;;;3.70;98.20;;;;;;5059511;28;20472;-74
2023/01/22 10:24:31;;;;;;;21.77;9.77;;;3.80;98.60;;;;;;5061489;28;20056;-74
2023/01/22 10:26:58;;;;;;;17.25;8.30;;;3.90;98.60;;;;;;5059308;28;20029;-75
2023/01/22 10:29:31;;;;;;;13.45;8.75;;;3.90;98.40;;;;;;5063980;28;20118;-74
2023/01/22 10:32:31;;;;;;;15.15;9.32;;;3.80;97.30;;;;;;5062160;28;20039;-74
2023/01/22 10:34:59;;;;;;;14.43;7.83;;;3.90;97.30;;;;;;5057340;28;20493;-74
2023/01/22 10:37:25;;;;;;;19.80;9.30;;;3.90;97.30;;;;;;5051957;28;20274;-74
2023/01/22 10:39:57;;;;;;;12.35;7.03;;;3.90;96.50;;;;;;5048410;28;20021;-74
2023/01/22 10:42:26;;;;;;;14.25;8.57;;;3.90;97.20;;;;;;5049696;28;20021;-74
2023/01/22 10:45:13;;;;;;;15.10;8.77;;;4.00;97.50;;;;;;5044071;28;20025;-76
2023/01/22 10:47:39;;;;;;;11.15;4.75;;;4.00;97.10;;;;;;5054049;28;20021;-75
2023/01/22 10:50:13;;;;;;;16.25;8.10;;;4.10;98.20;;;;;;5050197;28;20479;-75
2023/01/22 10:52:46;;;;;;;15.68;8.90;;;4.20;98.80;;;;;;5048175;28;20082;-75
2023/01/22 10:55:22;;;;;;;17.48;8.05;;;4.20;98.60;;;;;;5048540;28;20036;-75
2023/01/22 10:57:54;;;;;;;14.40;8.60;;;4.10;98.00;;;;;;5040541;28;20032;-75
2023/01/22 11:00:26;;;;;;;15.40;6.40;;;4.10;97.30;;;;;;5044627;28;20025;-75
2023/01/22 11:02:52;;;;;;;15.68;9.63;;;4.10;97.20;;;;;;5039468;28;20032;-75
2023/01/22 11:05:24;;;;;;;14.18;8.68;;;4.20;98.00;;;;;;5040958;28;20041;-75
2023/01/22 11:08:03;;;;;;;12.52;7.97;;;4.10;97.20;;;;;;5050837;28;20036;-75
2023/01/22 11:10:43;;;;;;;14.88;7.50;;;4.20;96.70;;;;;;5047589;28;20554;-75
2023/01/22 11:13:38;;;;;;;14.90;8.82;;;4.30;97.50;;;;;;5049459;28;20036;-75
2023/01/22 11:16:15;;;;;;;12.68;8.20;;;4.20;96.80;;;;;;5045863;28;20407;-75
2023/01/22 11:19:06;;;;;;;12.15;7.28;;;4.20;97.00;;;;;;5038455;28;20559;-74
2023/01/22 11:21:36;;;;;;;14.30;8.35;;;4.10;96.50;;;;;;5047799;28;20020;-76
2023/01/22 11:24:25;;;;;;;14.18;7.63;;;4.10;96.80;;;;;;5048441;28;20106;-76
2023/01/22 11:27:28;;;;;;;12.95;7.97;;;4.00;97.00;;;;;;5041574;28;20467;-75
2023/01/22 11:30:14;;;;;;;14.82;8.02;;;4.10;97.60;;;;;;5042132;28;20021;-76
2023/01/22 11:32:55;;;;;;;12.23;7.75;;;4.00;97.50;;;;;;5046225;28;20053;-75
2023/01/22 11:35:21;;;;;;;12.35;7.65;;;4.00;98.40;;;;;;5061667;28;20053;-74
2023/01/22 11:37:56;;;;;;;12.68;6.85;;;4.00;98.60;;;;;;5042810;28;20025;-75
2023/01/22 11:40:29;;;;;;;28.13;23.00;;;4.00;99.50;;;;;;5057067;28;20029;-74
2023/01/22 11:43:30;;;;;;;18.70;15.45;;;4.10;99.60;;;;;;5043209;28;20017;-74
2023/01/22 11:46:12;;;;;;;13.88;9.30;;;4.00;98.90;;;;;;5042427;28;20063;-74
2023/01/22 11:48:46;;;;;;;17.05;12.27;;;4.00;99.30;;;;;;5037879;28;20029;-74
2023/01/22 11:51:33;;;;;;;16.27;11.10;;;4.00;98.80;;;;;;5047877;28;20029;-75
2023/01/22 11:54:18;;;;;;;17.40;10.27;;;4.00;99.40;;;;;;5047838;28;20040;-76
2023/01/22 11:56:52;;;;;;;14.40;8.32;;;4.00;99.60;;;;;;5047647;28;20114;-75
2023/01/22 11:59:36;;;;;;;18.35;9.68;;;4.00;99.80;;;;;;5048699;28;20598;-75
2023/01/22 12:02:07;;;;;;;16.85;11.23;;;4.00;99.30;;;;;;5046826;28;20017;-74
2023/01/22 12:04:58;;;;;;;12.40;8.43;;;4.00;98.50;;;;;;5043092;28;20360;-75
2023/01/22 12:07:49;;;;;;;14.68;7.50;;;4.00;98.40;;;;;;5047645;28;20060;-75
2023/01/22 12:10:26;;;;;;;13.15;8.20;;;4.10;99.10;;;;;;5047110;28;20090;-74
2023/01/22 12:13:25;;;;;;;18.05;10.20;;;4.20;99.90;;;;;;5047391;28;20029;-75
2023/01/22 12:15:54;;;;;;;17.52;10.63;;;4.10;99.90;;;;;;5046969;28;20479;-75
2023/01/22 12:18:19;;;;;;;18.00;10.15;;;4.10;99.30;;;;;;5046795;28;20047;-74
2023/01/22 12:21:07;;;;;;;13.25;8.93;;;4.10;99.30;;;;;;5039517;28;20487;-73
2023/01/22 12:23:52;;;;;;;16.92;9.90;;;4.10;98.80;;;;;;5046494;28;20024;-75
2023/01/22 12:26:30;;;;;;;14.88;9.75;;;4.20;99.80;;;;;;5046111;28;20388;-72
2023/01/22 12:29:15;;;;;;;15.68;8.35;;;4.20;99.70;;;;;;5043525;28;20095;-74
2023/01/22 12:31:55;;;;;;;11.38;6.30;;;4.20;99.90;;;;;;5043821;28;20059;-74
2023/01/22 12:34:33;;;;;;;17.65;11.85;;;4.30;99.90;;;;;;5048125;28;20025;-75
2023/01/22 12:37:00;;;;;;;16.67;7.60;;;4.30;99.80;;;;;;5041294;28;20023;-74
2023/01/22 12:39:42;;;;;;;14.13;10.13;;;4.40;99.90;;;;;;5046754;28;20049;-74
2023/01/22 12:42:21;;;;;;;11.32;7.25;;;4.40;99.30;;;;;;5048178;28;20029;-74
2023/01/22 12:44:58;;;;;;;15.88;8.20;;;4.40;99.70;;;;;;5045139;28;20036;-74
2023/01/22 12:47:45;;;;;;;15.73;10.00;;;4.50;99.90;;;;;;5045709;28;20028;-75
2023/01/22 12:50:19;;;;;;;17.50;10.98;;;4.50;99.90;;;;;;5043186;28;20029;-73
2023/01/22 12:52:56;;;;;;;13.02;7.30;;;4.40;99.90;;;;;;5043627;28;20017;-74
2023/01/22 12:55:41;;;;;;;6.85;4.05;;;4.50;99.90;;;;;;5049163;28;20040;-75
2023/01/22 12:58:22;;;;;;;15.57;6.70;;;4.50;99.90;;;;;;5044878;28;20429;-75